sensor_id;sensor_type;location;lat;lon;timestamp;pressure;altitude;pressure_sealevel;temperature;humidity
3748;BME280;1889;50.058;8.688;2023-10-19T00:02:04;98501.73;;;15.63;75.22
3748;BME280;1889;50.058;8.688;2023-10-19T00:04:33;98501.00;;;15.54;75.78
3748;BME280;1889;50.058;8.688;2023-10-19T00:07:07;98494.05;;;15.59;75.85
3748;BME280;1889;50.058;8.688;2023-10-19T00:09:38;98492.08;;;15.62;75.88
3748;BME280;1889;50.058;8.688;2023-10-19T00:12:08;98485.82;;;15.63;75.82
3748;BME280;1889;50.058;8.688;2023-10-19T00:14:38;98482.48;;;15.67;75.82
3748;BME280;1889;50.058;8.688;2023-10-19T00:17:07;98486.55;;;15.65;75.79
3748;BME280;1889;50.058;8.688;2023-10-19T00:19:38;98486.99;;;15.17;78.60
3748;BME280;1889;50.058;8.688;2023-10-19T00:22:09;98482.73;;;15.28;77.90
3748;BME280;1889;50.058;8.688;2023-10-19T00:24:40;98491.99;;;15.36;77.74
3748;BME280;1889;50.058;8.688;2023-10-19T00:27:09;98486.96;;;15.45;77.46
3748;BME280;1889;50.058;8.688;2023-10-19T00:29:41;98482.70;;;15.43;77.40
3748;BME280;1889;50.058;8.688;2023-10-19T00:32:12;98488.00;;;15.43;77.42
3748;BME280;1889;50.058;8.688;2023-10-19T00:34:43;98481.22;;;15.17;78.74
3748;BME280;1889;50.058;8.688;2023-10-19T00:37:14;98481.33;;;15.23;78.49
3748;BME280;1889;50.058;8.688;2023-10-19T00:39:45;98480.35;;;15.38;78.29
3748;BME280;1889;50.058;8.688;2023-10-19T00:42:15;98480.35;;;15.38;78.29
3748;BME280;1889;50.058;8.688;2023-10-19T00:44:46;98481.48;;;15.34;78.29
3748;BME280;1889;50.058;8.688;2023-10-19T00:47:17;98468.59;;;15.42;78.13
3748;BME280;1889;50.058;8.688;2023-10-19T00:49:51;98463.08;;;15.52;77.69
3748;BME280;1889;50.058;8.688;2023-10-19T00:52:22;98465.73;;;15.59;77.31
3748;BME280;1889;50.058;8.688;2023-10-19T00:54:52;98459.86;;;15.61;77.16
3748;BME280;1889;50.058;8.688;2023-10-19T00:57:23;98459.96;;;15.60;77.17
3748;BME280;1889;50.058;8.688;2023-10-19T00:59:55;98457.62;;;15.55;77.36
3748;BME280;1889;50.058;8.688;2023-10-19T01:02:26;98459.19;;;15.51;77.36
3748;BME280;1889;50.058;8.688;2023-10-19T01:04:57;98455.44;;;15.55;77.42
3748;BME280;1889;50.058;8.688;2023-10-19T01:07:31;98456.36;;;15.61;77.28
3748;BME280;1889;50.058;8.688;2023-10-19T01:10:06;98453.05;;;15.64;77.02
3748;BME280;1889;50.058;8.688;2023-10-19T01:12:56;98449.89;;;15.65;77.08
3748;BME280;1889;50.058;8.688;2023-10-19T01:15:26;98445.84;;;15.59;77.08
3748;BME280;1889;50.058;8.688;2023-10-19T01:17:58;98440.16;;;15.58;77.20
3748;BME280;1889;50.058;8.688;2023-10-19T01:20:31;98439.59;;;15.60;77.28
3748;BME280;1889;50.058;8.688;2023-10-19T01:23:05;98429.66;;;15.64;77.21
3748;BME280;1889;50.058;8.688;2023-10-19T01:25:53;98433.03;;;15.66;77.17
3748;BME280;1889;50.058;8.688;2023-10-19T01:28:29;98431.61;;;15.68;77.16
3748;BME280;1889;50.058;8.688;2023-10-19T01:31:13;98431.98;;;15.69;77.27
3748;BME280;1889;50.058;8.688;2023-10-19T01:33:45;98436.63;;;15.72;77.31
3748;BME280;1889;50.058;8.688;2023-10-19T01:36:15;98434.55;;;15.70;77.33
3748;BME280;1889;50.058;8.688;2023-10-19T01:38:53;98432.84;;;15.69;77.25
3748;BME280;1889;50.058;8.688;2023-10-19T01:41:24;98424.47;;;15.48;78.11
3748;BME280;1889;50.058;8.688;2023-10-19T01:43:54;98424.47;;;15.48;78.11
3748;BME280;1889;50.058;8.688;2023-10-19T01:46:25;98425.16;;;15.38;78.70
3748;BME280;1889;50.058;8.688;2023-10-19T01:48:56;98423.45;;;15.37;78.92
3748;BME280;1889;50.058;8.688;2023-10-19T01:51:27;98428.34;;;15.16;80.28
3748;BME280;1889;50.058;8.688;2023-10-19T01:53:57;98425.27;;;15.29;79.84
3748;BME280;1889;50.058;8.688;2023-10-19T01:56:28;98418.30;;;15.41;79.54
3748;BME280;1889;50.058;8.688;2023-10-19T01:58:58;98417.23;;;15.50;79.29
3748;BME280;1889;50.058;8.688;2023-10-19T02:01:27;98415.66;;;15.55;79.13
3748;BME280;1889;50.058;8.688;2023-10-19T02:04:01;98410.52;;;15.59;79.05
3748;BME280;1889;50.058;8.688;2023-10-19T02:06:33;98408.78;;;15.65;78.89
3748;BME280;1889;50.058;8.688;2023-10-19T02:09:07;98403.47;;;15.72;78.63
3748;BME280;1889;50.058;8.688;2023-10-19T02:11:55;98402.88;;;15.74;78.37
3748;BME280;1889;50.058;8.688;2023-10-19T02:14:27;98400.59;;;15.75;78.20
3748;BME280;1889;50.058;8.688;2023-10-19T02:17:00;98389.73;;;15.73;78.18
3748;BME280;1889;50.058;8.688;2023-10-19T02:19:31;98388.56;;;15.77;78.28
3748;BME280;1889;50.058;8.688;2023-10-19T02:22:02;98388.52;;;15.84;77.71
3748;BME280;1889;50.058;8.688;2023-10-19T02:24:39;98378.94;;;15.69;78.21
3748;BME280;1889;50.058;8.688;2023-10-19T02:27:08;98383.63;;;15.51;79.04
3748;BME280;1889;50.058;8.688;2023-10-19T02:29:38;98379.48;;;15.47;79.25
3748;BME280;1889;50.058;8.688;2023-10-19T02:32:07;98376.52;;;15.51;79.38
3748;BME280;1889;50.058;8.688;2023-10-19T02:34:38;98376.84;;;15.54;79.39
3748;BME280;1889;50.058;8.688;2023-10-19T02:37:07;98380.59;;;15.57;79.38
3748;BME280;1889;50.058;8.688;2023-10-19T02:39:36;98374.68;;;15.66;79.37
3748;BME280;1889;50.058;8.688;2023-10-19T02:42:06;98374.68;;;15.66;79.37
3748;BME280;1889;50.058;8.688;2023-10-19T02:44:36;98373.73;;;15.67;79.21
3748;BME280;1889;50.058;8.688;2023-10-19T02:47:06;98368.56;;;15.58;79.31
3748;BME280;1889;50.058;8.688;2023-10-19T02:49:37;98365.38;;;15.53;79.63
3748;BME280;1889;50.058;8.688;2023-10-19T02:52:07;98359.38;;;15.57;79.69
3748;BME280;1889;50.058;8.688;2023-10-19T02:54:38;98355.73;;;15.65;79.64
3748;BME280;1889;50.058;8.688;2023-10-19T02:57:08;98348.72;;;15.71;79.38
3748;BME280;1889;50.058;8.688;2023-10-19T02:59:39;98355.50;;;15.75;79.13
3748;BME280;1889;50.058;8.688;2023-10-19T03:02:08;98358.81;;;15.79;79.10
3748;BME280;1889;50.058;8.688;2023-10-19T03:04:42;98352.66;;;15.78;79.10
3748;BME280;1889;50.058;8.688;2023-10-19T03:07:13;98349.53;;;15.79;79.23
3748;BME280;1889;50.058;8.688;2023-10-19T03:09:43;98350.81;;;15.86;79.11
3748;BME280;1889;50.058;8.688;2023-10-19T03:12:21;98339.15;;;15.88;78.94
3748;BME280;1889;50.058;8.688;2023-10-19T03:14:51;98343.75;;;15.92;78.85
3748;BME280;1889;50.058;8.688;2023-10-19T03:17:21;98343.17;;;15.94;78.87
3748;BME280;1889;50.058;8.688;2023-10-19T03:19:52;98343.33;;;15.98;78.92
3748;BME280;1889;50.058;8.688;2023-10-19T03:22:22;98342.75;;;16.00;78.87
3748;BME280;1889;50.058;8.688;2023-10-19T03:24:51;98342.36;;;15.54;80.86
3748;BME280;1889;50.058;8.688;2023-10-19T03:27:22;98342.66;;;14.88;85.58
3748;BME280;1889;50.058;8.688;2023-10-19T03:29:52;98353.68;;;15.02;84.91
3748;BME280;1889;50.058;8.688;2023-10-19T03:32:26;98355.24;;;15.19;83.53
3748;BME280;1889;50.058;8.688;2023-10-19T03:34:56;98350.64;;;15.35;82.79
3748;BME280;1889;50.058;8.688;2023-10-19T03:37:28;98350.70;;;15.41;82.43
3748;BME280;1889;50.058;8.688;2023-10-19T03:40:02;98345.02;;;15.47;82.22
3748;BME280;1889;50.058;8.688;2023-10-19T03:42:36;98340.63;;;15.53;82.04
3748;BME280;1889;50.058;8.688;2023-10-19T03:45:09;98326.09;;;15.65;81.58
3748;BME280;1889;50.058;8.688;2023-10-19T03:47:44;98330.16;;;15.71;81.26
3748;BME280;1889;50.058;8.688;2023-10-19T03:50:15;98333.05;;;15.74;81.11
3748;BME280;1889;50.058;8.688;2023-10-19T03:52:46;98322.42;;;15.81;80.93
3748;BME280;1889;50.058;8.688;2023-10-19T03:55:15;98322.42;;;15.81;80.93
3748;BME280;1889;50.058;8.688;2023-10-19T03:57:49;98323.15;;;15.83;80.80
3748;BME280;1889;50.058;8.688;2023-10-19T04:00:22;98307.98;;;15.85;80.93
3748;BME280;1889;50.058;8.688;2023-10-19T04:02:56;98294.59;;;15.34;84.42
3748;BME280;1889;50.058;8.688;2023-10-19T04:05:26;98294.59;;;15.34;84.42
3748;BME280;1889;50.058;8.688;2023-10-19T04:07:56;98305.01;;;15.37;85.49
3748;BME280;1889;50.058;8.688;2023-10-19T04:10:27;98305.01;;;15.37;85.49
3748;BME280;1889;50.058;8.688;2023-10-19T04:13:00;98300.84;;;15.40;86.95
3748;BME280;1889;50.058;8.688;2023-10-19T04:15:31;98305.16;;;15.48;86.96
3748;BME280;1889;50.058;8.688;2023-10-19T04:18:03;98306.25;;;15.12;89.79
3748;BME280;1889;50.058;8.688;2023-10-19T04:20:39;98297.51;;;14.56;95.11
3748;BME280;1889;50.058;8.688;2023-10-19T04:23:13;98290.14;;;14.47;95.56
3748;BME280;1889;50.058;8.688;2023-10-19T04:25:43;98283.03;;;14.96;91.71
3748;BME280;1889;50.058;8.688;2023-10-19T04:28:16;98276.75;;;15.04;90.80
3748;BME280;1889;50.058;8.688;2023-10-19T04:30:47;98269.75;;;14.83;93.02
3748;BME280;1889;50.058;8.688;2023-10-19T04:33:16;98284.86;;;15.15;90.39
3748;BME280;1889;50.058;8.688;2023-10-19T04:35:47;98284.86;;;15.15;90.39
3748;BME280;1889;50.058;8.688;2023-10-19T04:38:18;98258.05;;;15.52;88.38
3748;BME280;1889;50.058;8.688;2023-10-19T04:40:48;98258.05;;;15.52;88.38
3748;BME280;1889;50.058;8.688;2023-10-19T04:43:17;98256.14;;;15.61;87.79
3748;BME280;1889;50.058;8.688;2023-10-19T04:45:48;98259.26;;;15.73;87.28
3748;BME280;1889;50.058;8.688;2023-10-19T04:48:17;98262.44;;;15.65;87.58
3748;BME280;1889;50.058;8.688;2023-10-19T04:50:47;98272.63;;;15.52;89.10
3748;BME280;1889;50.058;8.688;2023-10-19T04:53:17;98279.16;;;15.60;89.05
3748;BME280;1889;50.058;8.688;2023-10-19T04:55:46;98280.38;;;15.62;89.54
3748;BME280;1889;50.058;8.688;2023-10-19T04:58:15;98278.81;;;15.72;88.74
3748;BME280;1889;50.058;8.688;2023-10-19T05:00:45;98285.81;;;15.86;87.91
3748;BME280;1889;50.058;8.688;2023-10-19T05:03:14;98284.01;;;15.86;88.03
3748;BME280;1889;50.058;8.688;2023-10-19T05:05:45;98284.05;;;15.92;87.91
3748;BME280;1889;50.058;8.688;2023-10-19T05:08:15;98275.72;;;15.91;88.35
3748;BME280;1889;50.058;8.688;2023-10-19T05:10:44;98276.69;;;16.02;87.80
3748;BME280;1889;50.058;8.688;2023-10-19T05:13:14;98281.45;;;15.85;89.42
3748;BME280;1889;50.058;8.688;2023-10-19T05:15:44;98285.28;;;15.93;88.80
3748;BME280;1889;50.058;8.688;2023-10-19T05:18:13;98289.95;;;16.02;88.18
3748;BME280;1889;50.058;8.688;2023-10-19T05:20:43;98287.28;;;15.90;89.48
3748;BME280;1889;50.058;8.688;2023-10-19T05:23:12;98281.55;;;15.83;90.44
3748;BME280;1889;50.058;8.688;2023-10-19T05:25:42;98275.47;;;15.88;90.29
3748;BME280;1889;50.058;8.688;2023-10-19T05:28:11;98261.50;;;15.92;89.91
3748;BME280;1889;50.058;8.688;2023-10-19T05:30:40;98263.53;;;15.88;90.46
3748;BME280;1889;50.058;8.688;2023-10-19T05:33:10;98265.87;;;15.80;91.40
3748;BME280;1889;50.058;8.688;2023-10-19T05:35:40;98270.11;;;15.95;90.25
3748;BME280;1889;50.058;8.688;2023-10-19T05:38:09;98281.02;;;15.91;90.76
3748;BME280;1889;50.058;8.688;2023-10-19T05:40:38;98259.53;;;16.01;89.91
3748;BME280;1889;50.058;8.688;2023-10-19T05:43:09;98265.42;;;15.99;90.08
3748;BME280;1889;50.058;8.688;2023-10-19T05:45:39;98256.50;;;16.00;90.07
3748;BME280;1889;50.058;8.688;2023-10-19T05:48:09;98257.20;;;16.09;89.65
3748;BME280;1889;50.058;8.688;2023-10-19T05:50:39;98258.78;;;15.99;90.37
3748;BME280;1889;50.058;8.688;2023-10-19T05:53:10;98258.95;;;16.03;89.96
3748;BME280;1889;50.058;8.688;2023-10-19T05:55:40;98270.27;;;16.12;89.71
3748;BME280;1889;50.058;8.688;2023-10-19T05:58:09;98269.82;;;16.18;89.22
3748;BME280;1889;50.058;8.688;2023-10-19T06:00:39;98269.66;;;16.27;88.70
3748;BME280;1889;50.058;8.688;2023-10-19T06:03:08;98268.94;;;16.30;88.41
3748;BME280;1889;50.058;8.688;2023-10-19T06:05:38;98259.44;;;16.33;88.29
3748;BME280;1889;50.058;8.688;2023-10-19T06:08:07;98266.48;;;16.40;87.96
3748;BME280;1889;50.058;8.688;2023-10-19T06:10:36;98265.33;;;16.44;87.74
3748;BME280;1889;50.058;8.688;2023-10-19T06:13:07;98264.95;;;16.43;87.65
3748;BME280;1889;50.058;8.688;2023-10-19T06:15:38;98274.93;;;16.39;87.69
3748;BME280;1889;50.058;8.688;2023-10-19T06:18:07;98267.91;;;16.38;87.76
3748;BME280;1889;50.058;8.688;2023-10-19T06:20:37;98272.78;;;16.26;88.26
3748;BME280;1889;50.058;8.688;2023-10-19T06:23:08;98263.70;;;16.23;88.45
3748;BME280;1889;50.058;8.688;2023-10-19T06:25:37;98260.84;;;16.26;88.50
3748;BME280;1889;50.058;8.688;2023-10-19T06:28:07;98264.00;;;16.31;88.47
3748;BME280;1889;50.058;8.688;2023-10-19T06:30:36;98265.70;;;16.32;88.31
3748;BME280;1889;50.058;8.688;2023-10-19T06:33:06;98279.17;;;16.11;89.40
3748;BME280;1889;50.058;8.688;2023-10-19T06:35:35;98270.34;;;16.23;88.99
3748;BME280;1889;50.058;8.688;2023-10-19T06:38:05;98281.56;;;16.21;89.20
3748;BME280;1889;50.058;8.688;2023-10-19T06:40:36;98275.75;;;16.22;89.29
3748;BME280;1889;50.058;8.688;2023-10-19T06:43:05;98273.73;;;16.25;88.96
3748;BME280;1889;50.058;8.688;2023-10-19T06:45:35;98280.65;;;16.28;88.79
3748;BME280;1889;50.058;8.688;2023-10-19T06:48:05;98277.08;;;16.34;88.62
3748;BME280;1889;50.058;8.688;2023-10-19T06:50:35;98276.73;;;16.39;88.38
3748;BME280;1889;50.058;8.688;2023-10-19T06:53:05;98279.45;;;16.45;88.24
3748;BME280;1889;50.058;8.688;2023-10-19T06:55:34;98284.45;;;16.55;87.82
3748;BME280;1889;50.058;8.688;2023-10-19T06:58:04;98280.61;;;16.53;87.82
3748;BME280;1889;50.058;8.688;2023-10-19T07:00:34;98278.63;;;16.62;87.50
3748;BME280;1889;50.058;8.688;2023-10-19T07:03:05;98272.25;;;16.65;87.26
3748;BME280;1889;50.058;8.688;2023-10-19T07:05:35;98268.00;;;16.62;87.29
3748;BME280;1889;50.058;8.688;2023-10-19T07:08:04;98269.75;;;16.69;87.29
3748;BME280;1889;50.058;8.688;2023-10-19T07:10:35;98267.47;;;16.70;87.40
3748;BME280;1889;50.058;8.688;2023-10-19T07:13:04;98274.45;;;16.71;87.47
3748;BME280;1889;50.058;8.688;2023-10-19T07:15:33;98276.16;;;16.72;87.42
3748;BME280;1889;50.058;8.688;2023-10-19T07:18:03;98276.27;;;16.70;87.42
3748;BME280;1889;50.058;8.688;2023-10-19T07:20:34;98277.20;;;16.51;89.14
3748;BME280;1889;50.058;8.688;2023-10-19T07:23:05;98277.95;;;16.53;89.05
3748;BME280;1889;50.058;8.688;2023-10-19T07:25:36;98274.72;;;16.43;90.07
3748;BME280;1889;50.058;8.688;2023-10-19T07:28:07;98274.07;;;16.52;89.51
3748;BME280;1889;50.058;8.688;2023-10-19T07:30:37;98275.53;;;16.56;89.37
3748;BME280;1889;50.058;8.688;2023-10-19T07:33:07;98283.78;;;16.27;92.19
3748;BME280;1889;50.058;8.688;2023-10-19T07:35:38;98278.36;;;16.47;90.82
3748;BME280;1889;50.058;8.688;2023-10-19T07:38:07;98273.12;;;16.53;90.22
3748;BME280;1889;50.058;8.688;2023-10-19T07:40:37;98269.91;;;16.60;89.81
3748;BME280;1889;50.058;8.688;2023-10-19T07:43:06;98270.13;;;16.70;89.53
3748;BME280;1889;50.058;8.688;2023-10-19T07:45:36;98273.04;;;16.60;90.41
3748;BME280;1889;50.058;8.688;2023-10-19T07:48:06;98283.30;;;16.59;90.50
3748;BME280;1889;50.058;8.688;2023-10-19T07:50:39;98273.50;;;16.72;89.84
3748;BME280;1889;50.058;8.688;2023-10-19T07:53:11;98272.58;;;16.48;92.09
3748;BME280;1889;50.058;8.688;2023-10-19T07:55:41;98271.02;;;16.63;91.09
3748;BME280;1889;50.058;8.688;2023-10-19T07:58:11;98268.29;;;16.70;90.50
3748;BME280;1889;50.058;8.688;2023-10-19T08:00:41;98266.19;;;16.81;90.01
3748;BME280;1889;50.058;8.688;2023-10-19T08:03:10;98266.72;;;16.86;89.75
3748;BME280;1889;50.058;8.688;2023-10-19T08:05:41;98270.55;;;16.82;90.26
3748;BME280;1889;50.058;8.688;2023-10-19T08:08:11;98263.67;;;16.61;92.29
3748;BME280;1889;50.058;8.688;2023-10-19T08:10:41;98264.02;;;16.81;91.55
3748;BME280;1889;50.058;8.688;2023-10-19T08:13:10;98262.76;;;16.92;90.68
3748;BME280;1889;50.058;8.688;2023-10-19T08:15:41;98256.05;;;17.04;89.96
3748;BME280;1889;50.058;8.688;2023-10-19T08:18:10;98249.38;;;16.99;89.89
3748;BME280;1889;50.058;8.688;2023-10-19T08:20:40;98252.05;;;17.04;89.65
3748;BME280;1889;50.058;8.688;2023-10-19T08:23:12;98249.47;;;16.92;90.59
3748;BME280;1889;50.058;8.688;2023-10-19T08:25:46;98243.22;;;16.98;90.16
3748;BME280;1889;50.058;8.688;2023-10-19T08:28:15;98243.71;;;17.03;89.90
3748;BME280;1889;50.058;8.688;2023-10-19T08:30:45;98245.22;;;16.89;91.22
3748;BME280;1889;50.058;8.688;2023-10-19T08:33:16;98249.92;;;16.55;93.40
3748;BME280;1889;50.058;8.688;2023-10-19T08:35:45;98266.42;;;16.16;98.48
3748;BME280;1889;50.058;8.688;2023-10-19T08:38:15;98287.89;;;16.44;98.03
3748;BME280;1889;50.058;8.688;2023-10-19T08:40:44;98283.17;;;16.73;95.34
3748;BME280;1889;50.058;8.688;2023-10-19T08:43:14;98287.97;;;16.24;98.77
3748;BME280;1889;50.058;8.688;2023-10-19T08:45:45;98288.61;;;16.15;100.00
3748;BME280;1889;50.058;8.688;2023-10-19T08:48:14;98286.87;;;16.21;100.00
3748;BME280;1889;50.058;8.688;2023-10-19T08:50:44;98277.66;;;16.32;100.00
3748;BME280;1889;50.058;8.688;2023-10-19T08:53:14;98282.41;;;16.53;99.09
3748;BME280;1889;50.058;8.688;2023-10-19T08:55:46;98278.13;;;16.75;97.29
3748;BME280;1889;50.058;8.688;2023-10-19T08:58:17;98262.36;;;16.85;95.94
3748;BME280;1889;50.058;8.688;2023-10-19T09:00:51;98252.45;;;16.87;95.24
3748;BME280;1889;50.058;8.688;2023-10-19T09:03:25;98241.91;;;16.80;95.53
3748;BME280;1889;50.058;8.688;2023-10-19T09:05:54;98234.50;;;16.96;95.20
3748;BME280;1889;50.058;8.688;2023-10-19T09:08:24;98231.27;;;17.04;94.80
3748;BME280;1889;50.058;8.688;2023-10-19T09:10:53;98232.16;;;17.10;94.35
3748;BME280;1889;50.058;8.688;2023-10-19T09:13:25;98244.27;;;17.20;93.75
3748;BME280;1889;50.058;8.688;2023-10-19T09:15:54;98241.53;;;17.27;93.16
3748;BME280;1889;50.058;8.688;2023-10-19T09:18:25;98239.86;;;17.37;92.75
3748;BME280;1889;50.058;8.688;2023-10-19T09:20:58;98239.59;;;17.29;93.05
3748;BME280;1889;50.058;8.688;2023-10-19T09:23:38;98240.97;;;17.45;92.35
3748;BME280;1889;50.058;8.688;2023-10-19T09:26:08;98240.59;;;17.39;92.46
3748;BME280;1889;50.058;8.688;2023-10-19T09:28:39;98240.48;;;17.40;92.92
3748;BME280;1889;50.058;8.688;2023-10-19T09:31:08;98219.36;;;17.61;92.12
3748;BME280;1889;50.058;8.688;2023-10-19T09:33:43;98224.23;;;17.62;91.59
3748;BME280;1889;50.058;8.688;2023-10-19T09:36:13;98225.71;;;17.66;91.68
3748;BME280;1889;50.058;8.688;2023-10-19T09:38:52;98222.94;;;17.73;90.81
3748;BME280;1889;50.058;8.688;2023-10-19T09:41:20;98213.88;;;17.75;90.45
3748;BME280;1889;50.058;8.688;2023-10-19T09:43:51;98207.11;;;17.82;90.17
3748;BME280;1889;50.058;8.688;2023-10-19T09:46:24;98207.10;;;17.88;90.34
3748;BME280;1889;50.058;8.688;2023-10-19T09:48:54;98206.14;;;18.06;89.33
3748;BME280;1889;50.058;8.688;2023-10-19T09:51:24;98203.72;;;17.97;89.24
3748;BME280;1889;50.058;8.688;2023-10-19T09:54:19;98200.07;;;17.92;89.55
3748;BME280;1889;50.058;8.688;2023-10-19T09:56:38;98202.87;;;17.91;89.76
3748;BME280;1889;50.058;8.688;2023-10-19T09:59:33;98196.94;;;17.87;89.99
3748;BME280;1889;50.058;8.688;2023-10-19T10:02:07;98196.06;;;17.76;91.48
3748;BME280;1889;50.058;8.688;2023-10-19T10:04:39;98197.59;;;17.50;93.92
3748;BME280;1889;50.058;8.688;2023-10-19T10:07:10;98189.10;;;17.40;96.67
3748;BME280;1889;50.058;8.688;2023-10-19T10:09:40;98185.80;;;17.71;94.81
3748;BME280;1889;50.058;8.688;2023-10-19T10:12:23;98187.75;;;17.97;92.78
3748;BME280;1889;50.058;8.688;2023-10-19T10:14:58;98184.58;;;18.09;91.70
3748;BME280;1889;50.058;8.688;2023-10-19T10:17:32;98181.80;;;18.21;90.74
3748;BME280;1889;50.058;8.688;2023-10-19T10:25:29;98174.43;;;18.14;92.93
3748;BME280;1889;50.058;8.688;2023-10-19T10:27:59;98172.46;;;18.27;92.59
3748;BME280;1889;50.058;8.688;2023-10-19T10:30:31;98171.49;;;18.39;92.40
3748;BME280;1889;50.058;8.688;2023-10-19T10:33:00;98180.31;;;18.45;93.10
3748;BME280;1889;50.058;8.688;2023-10-19T10:38:11;98181.14;;;18.57;91.27
3748;BME280;1889;50.058;8.688;2023-10-19T10:40:49;98176.98;;;18.81;91.71
3748;BME280;1889;50.058;8.688;2023-10-19T10:43:19;98171.98;;;18.87;91.45
3748;BME280;1889;50.058;8.688;2023-10-19T10:45:49;98171.89;;;18.78;90.87
3748;BME280;1889;50.058;8.688;2023-10-19T10:48:20;98173.04;;;18.90;90.76
3748;BME280;1889;50.058;8.688;2023-10-19T10:50:51;98171.27;;;19.06;89.59
3748;BME280;1889;50.058;8.688;2023-10-19T10:53:23;98168.06;;;18.97;89.95
3748;BME280;1889;50.058;8.688;2023-10-19T10:55:57;98167.55;;;19.03;91.12
3748;BME280;1889;50.058;8.688;2023-10-19T10:58:26;98165.25;;;19.25;89.91
3748;BME280;1889;50.058;8.688;2023-10-19T11:00:55;98166.73;;;19.38;88.90
3748;BME280;1889;50.058;8.688;2023-10-19T11:03:25;98166.73;;;19.38;88.90
3748;BME280;1889;50.058;8.688;2023-10-19T11:06:09;98178.23;;;19.44;89.10
3748;BME280;1889;50.058;8.688;2023-10-19T11:08:37;98182.95;;;19.26;88.32
3748;BME280;1889;50.058;8.688;2023-10-19T11:11:09;98172.77;;;19.25;89.26
3748;BME280;1889;50.058;8.688;2023-10-19T11:13:42;98167.14;;;19.55;87.72
3748;BME280;1889;50.058;8.688;2023-10-19T11:16:21;98167.14;;;19.55;87.72
3748;BME280;1889;50.058;8.688;2023-10-19T11:18:48;98164.35;;;19.56;86.01
3748;BME280;1889;50.058;8.688;2023-10-19T11:21:17;98161.12;;;19.26;88.82
3748;BME280;1889;50.058;8.688;2023-10-19T11:23:50;98159.08;;;18.72;92.13
3748;BME280;1889;50.058;8.688;2023-10-19T11:26:24;98154.95;;;18.67;92.15
3748;BME280;1889;50.058;8.688;2023-10-19T11:29:00;98156.77;;;18.99;90.51
3748;BME280;1889;50.058;8.688;2023-10-19T11:31:31;98153.20;;;18.40;94.24
3748;BME280;1889;50.058;8.688;2023-10-19T11:34:02;98152.83;;;18.34;97.09
3748;BME280;1889;50.058;8.688;2023-10-19T11:36:34;98147.34;;;18.52;94.80
3748;BME280;1889;50.058;8.688;2023-10-19T11:39:03;98152.14;;;18.80;92.62
3748;BME280;1889;50.058;8.688;2023-10-19T11:41:37;98155.92;;;18.66;92.66
3748;BME280;1889;50.058;8.688;2023-10-19T11:44:07;98146.51;;;18.62;94.06
3748;BME280;1889;50.058;8.688;2023-10-19T11:46:36;98148.84;;;18.39;96.11
3748;BME280;1889;50.058;8.688;2023-10-19T11:49:06;98140.23;;;18.47;95.43
3748;BME280;1889;50.058;8.688;2023-10-19T11:51:37;98134.75;;;18.54;95.57
3748;BME280;1889;50.058;8.688;2023-10-19T11:54:06;98131.79;;;18.74;94.34
3748;BME280;1889;50.058;8.688;2023-10-19T11:56:36;98129.69;;;18.88;93.02
3748;BME280;1889;50.058;8.688;2023-10-19T11:59:05;98130.61;;;18.72;93.80
3748;BME280;1889;50.058;8.688;2023-10-19T12:01:35;98118.70;;;18.76;93.50
3748;BME280;1889;50.058;8.688;2023-10-19T12:04:05;98113.72;;;18.56;94.31
3748;BME280;1889;50.058;8.688;2023-10-19T12:06:34;98108.59;;;18.53;95.02
3748;BME280;1889;50.058;8.688;2023-10-19T12:09:03;98105.80;;;18.49;96.11
3748;BME280;1889;50.058;8.688;2023-10-19T12:11:35;98100.29;;;18.36;98.12
3748;BME280;1889;50.058;8.688;2023-10-19T12:14:04;98100.75;;;18.46;97.47
3748;BME280;1889;50.058;8.688;2023-10-19T12:16:35;98105.81;;;18.55;96.79
3748;BME280;1889;50.058;8.688;2023-10-19T12:19:05;98105.02;;;18.81;95.46
3748;BME280;1889;50.058;8.688;2023-10-19T12:21:35;98101.26;;;18.98;94.08
3748;BME280;1889;50.058;8.688;2023-10-19T12:24:06;98098.67;;;18.87;94.13
3748;BME280;1889;50.058;8.688;2023-10-19T12:26:36;98103.80;;;19.00;94.18
3748;BME280;1889;50.058;8.688;2023-10-19T12:29:06;98101.93;;;18.53;97.69
3748;BME280;1889;50.058;8.688;2023-10-19T12:31:37;98101.93;;;18.53;97.69
3748;BME280;1889;50.058;8.688;2023-10-19T12:34:07;98102.91;;;18.52;98.45
3748;BME280;1889;50.058;8.688;2023-10-19T12:36:38;98106.83;;;18.75;97.90
3748;BME280;1889;50.058;8.688;2023-10-19T12:39:09;98102.34;;;19.01;95.48
3748;BME280;1889;50.058;8.688;2023-10-19T12:41:40;98090.63;;;18.93;93.06
3748;BME280;1889;50.058;8.688;2023-10-19T12:44:09;98093.55;;;18.90;93.41
3748;BME280;1889;50.058;8.688;2023-10-19T12:46:40;98093.02;;;18.81;94.62
3748;BME280;1889;50.058;8.688;2023-10-19T12:49:09;98092.86;;;18.88;93.25
3748;BME280;1889;50.058;8.688;2023-10-19T12:51:40;98087.32;;;18.80;92.38
3748;BME280;1889;50.058;8.688;2023-10-19T12:54:11;98087.32;;;18.80;92.38
3748;BME280;1889;50.058;8.688;2023-10-19T12:56:42;98088.89;;;19.03;91.32
3748;BME280;1889;50.058;8.688;2023-10-19T12:59:11;98081.44;;;19.12;90.90
3748;BME280;1889;50.058;8.688;2023-10-19T13:01:41;98071.06;;;19.03;90.58
3748;BME280;1889;50.058;8.688;2023-10-19T13:04:13;98068.69;;;18.95;90.30
3748;BME280;1889;50.058;8.688;2023-10-19T13:06:46;98068.69;;;18.95;90.30
3748;BME280;1889;50.058;8.688;2023-10-19T13:09:16;98065.39;;;18.76;91.52
3748;BME280;1889;50.058;8.688;2023-10-19T13:11:50;98061.43;;;18.91;90.94
3748;BME280;1889;50.058;8.688;2023-10-19T13:14:20;98061.43;;;18.91;90.94
3748;BME280;1889;50.058;8.688;2023-10-19T13:16:49;98050.58;;;19.04;90.07
3748;BME280;1889;50.058;8.688;2023-10-19T13:19:22;98053.92;;;19.12;89.81
3748;BME280;1889;50.058;8.688;2023-10-19T13:21:54;98053.92;;;19.12;89.81
3748;BME280;1889;50.058;8.688;2023-10-19T13:24:25;98045.20;;;19.10;89.73
3748;BME280;1889;50.058;8.688;2023-10-19T13:26:56;98060.11;;;19.12;89.90
3748;BME280;1889;50.058;8.688;2023-10-19T13:29:25;98059.57;;;19.18;90.01
3748;BME280;1889;50.058;8.688;2023-10-19T13:31:55;98059.55;;;19.03;91.25
3748;BME280;1889;50.058;8.688;2023-10-19T13:34:25;98059.55;;;19.03;91.25
3748;BME280;1889;50.058;8.688;2023-10-19T13:36:54;98051.39;;;19.25;89.87
3748;BME280;1889;50.058;8.688;2023-10-19T13:39:24;98051.39;;;19.25;89.87
3748;BME280;1889;50.058;8.688;2023-10-19T13:41:53;98054.31;;;19.22;89.97
3748;BME280;1889;50.058;8.688;2023-10-19T13:44:22;98056.59;;;19.12;91.13
3748;BME280;1889;50.058;8.688;2023-10-19T13:46:53;98059.70;;;19.17;90.57
3748;BME280;1889;50.058;8.688;2023-10-19T13:49:23;98057.34;;;19.23;90.53
3748;BME280;1889;50.058;8.688;2023-10-19T13:51:52;98057.34;;;19.23;90.53